Terminal Aerodrome Forecast
Issued by NWS Atlanta, GA

Home | Current Version | Previous Version | Text Only | Print | Product List | Glossary On
Versions: 1 2 3 4 5 6 7 8 9 10 11 12 13 14 15 16 17 18 19 20 21 22 23 24 25 26 27 28 29 30 31 32 33 34 35 36 37 38 39
000
FTUS42 KFFC 270158 AAB
TAFATL
TAF AMD
KATL 270158Z 2702/2806 19007KT P6SM VCSH SCT060
     FM270900 15004KT P6SM SCT040 BKN120
     FM271500 15006KT P6SM BKN050
     FM272300 13005KT P6SM FEW050 SCT250=

USA.gov is the U.S. government's official web portal to all federal, state and local government web resources and services.